createdAt,value
2023-05-05T00:02:04.225Z,101425.41
2023-05-05T00:04:34.503Z,101433.41
2023-05-05T00:07:07.310Z,101430.25
2023-05-05T00:09:37.394Z,101425.06
2023-05-05T00:12:08.681Z,101422.56
2023-05-05T00:14:38.767Z,101425.25
2023-05-05T00:17:24.067Z,101427.75
2023-05-05T00:19:54.222Z,101419.06
2023-05-05T00:22:27.311Z,101424.06
2023-05-05T00:24:59.968Z,101423.75
2023-05-05T00:27:30.134Z,101423.56
2023-05-05T00:30:00.160Z,101421.72
2023-05-05T00:32:30.355Z,101415.72
2023-05-05T00:35:00.558Z,101417.41
2023-05-05T00:37:33.366Z,101418.41
2023-05-05T00:40:03.773Z,101414.22
2023-05-05T00:42:42.691Z,101405.41
2023-05-05T00:45:14.592Z,101412.22
2023-05-05T00:47:48.128Z,101412.75
2023-05-05T00:50:25.977Z,101404.91
2023-05-05T00:53:01.786Z,101398.72
2023-05-05T00:55:33.037Z,101408.06
2023-05-05T00:58:04.824Z,101401.06
2023-05-05T01:00:35.266Z,101399.69
2023-05-05T01:03:05.484Z,101403.00
2023-05-05T01:05:41.823Z,101401.66
2023-05-05T01:08:29.810Z,101395.97
2023-05-05T01:11:05.360Z,101396.28
2023-05-05T01:13:46.282Z,101392.75
2023-05-05T01:16:21.481Z,101404.06
2023-05-05T01:19:01.177Z,101399.72
2023-05-05T01:21:36.592Z,101395.75
2023-05-05T01:24:42.079Z,101404.88
2023-05-05T01:27:34.429Z,101395.22
2023-05-05T01:30:13.486Z,101395.41
2023-05-05T01:32:51.689Z,101396.03
2023-05-05T01:35:25.648Z,101390.88
2023-05-05T01:38:06.108Z,101396.84
2023-05-05T01:40:42.153Z,101387.69
2023-05-05T01:43:16.287Z,101393.00
2023-05-05T01:45:49.609Z,101390.50
2023-05-05T01:48:24.003Z,101389.31
2023-05-05T01:50:56.274Z,101390.91
2023-05-05T01:53:28.651Z,101391.25
2023-05-05T01:56:00.720Z,101389.56
2023-05-05T01:58:32.775Z,101395.56
2023-05-05T02:01:04.585Z,101392.72
2023-05-05T02:03:40.681Z,101384.06
2023-05-05T02:06:13.220Z,101391.38
2023-05-05T02:08:45.072Z,101387.03
2023-05-05T02:11:15.903Z,101379.38
2023-05-05T02:13:47.299Z,101380.03
2023-05-05T02:16:20.561Z,101387.34
2023-05-05T02:18:54.694Z,101389.50
2023-05-05T02:21:24.956Z,101381.34
2023-05-05T02:23:56.066Z,101377.34
2023-05-05T02:26:27.614Z,101376.34
2023-05-05T02:29:05.761Z,101376.34
2023-05-05T02:31:41.347Z,101382.00
2023-05-05T02:34:16.431Z,101378.81
2023-05-05T02:36:49.419Z,101379.56
2023-05-05T02:39:28.092Z,101385.19
2023-05-05T02:42:00.342Z,101384.66
2023-05-05T02:44:32.415Z,101387.28
2023-05-05T02:47:02.452Z,101380.91
2023-05-05T02:49:35.589Z,101380.91
2023-05-05T02:52:06.171Z,101380.59
2023-05-05T02:54:39.512Z,101386.91
2023-05-05T02:57:21.574Z,101394.38
2023-05-05T03:00:09.674Z,101392.41
2023-05-05T03:02:48.022Z,101382.06
2023-05-05T03:05:27.218Z,101379.56
2023-05-05T03:08:05.058Z,101376.75
2023-05-05T03:10:54.680Z,101382.22
2023-05-05T03:13:29.354Z,101381.53
2023-05-05T03:16:04.703Z,101385.34
2023-05-05T03:18:35.577Z,101381.69
2023-05-05T03:21:10.876Z,101376.38
2023-05-05T03:23:44.124Z,101380.03
2023-05-05T03:26:21.806Z,101376.69
2023-05-05T03:28:51.903Z,101382.00
2023-05-05T03:31:28.679Z,101377.66
2023-05-05T03:34:02.134Z,101377.66
2023-05-05T03:36:41.452Z,101382.97
2023-05-05T03:39:14.752Z,101384.66
2023-05-05T03:41:50.549Z,101381.31
2023-05-05T03:44:23.006Z,101384.13
2023-05-05T03:46:53.101Z,101390.13
2023-05-05T03:49:23.368Z,101393.09
2023-05-05T03:51:57.210Z,101395.22
2023-05-05T03:54:27.408Z,101393.03
2023-05-05T03:56:58.370Z,101393.88
2023-05-05T03:59:29.300Z,101392.88
2023-05-05T04:02:00.012Z,101389.06
2023-05-05T04:04:30.208Z,101390.06
2023-05-05T04:07:03.386Z,101385.56
2023-05-05T04:09:33.466Z,101379.25
2023-05-05T04:12:03.905Z,101374.56
2023-05-05T04:14:36.303Z,101375.88
2023-05-05T04:17:06.467Z,101378.22
2023-05-05T04:19:37.408Z,101382.53
2023-05-05T04:22:10.428Z,101379.78
2023-05-05T04:24:41.061Z,101382.59
2023-05-05T04:27:11.135Z,101385.88
2023-05-05T04:29:41.476Z,101382.91
2023-05-05T04:32:11.782Z,101386.94
2023-05-05T04:34:41.861Z,101380.88
2023-05-05T04:37:14.856Z,101386.81
2023-05-05T04:39:45.191Z,101381.69
2023-05-05T04:42:15.221Z,101395.09
2023-05-05T04:44:45.332Z,101402.84
2023-05-05T04:47:15.463Z,101402.91
2023-05-05T04:49:46.222Z,101406.28
2023-05-05T04:52:19.059Z,101411.31
2023-05-05T04:54:50.762Z,101410.66
2023-05-05T04:57:20.934Z,101412.56
2023-05-05T04:59:51.247Z,101418.72
2023-05-05T05:02:21.989Z,101424.16
2023-05-05T05:04:58.857Z,101419.63
2023-05-05T05:07:33.200Z,101422.31
2023-05-05T05:10:11.226Z,101420.63
2023-05-05T05:13:34.299Z,101431.94
2023-05-05T05:16:04.712Z,101422.28
2023-05-05T05:18:34.879Z,101431.97
2023-05-05T05:21:04.963Z,101423.00
2023-05-05T05:26:46.695Z,101421.09
2023-05-05T05:29:16.890Z,101430.38
2023-05-05T05:31:47.264Z,101431.00
2023-05-05T05:34:17.644Z,101436.78
2023-05-05T05:36:48.493Z,101429.53
2023-05-05T05:39:21.957Z,101426.78
2023-05-05T05:41:52.367Z,101434.94
2023-05-05T05:44:23.711Z,101438.59
2023-05-05T05:47:03.574Z,101434.78
2023-05-05T05:49:36.675Z,101435.66
2023-05-05T05:52:07.213Z,101437.75
2023-05-05T05:54:40.037Z,101438.75
2023-05-05T05:57:11.322Z,101438.28
2023-05-05T05:59:44.780Z,101431.81
2023-05-05T06:02:17.408Z,101437.00
2023-05-05T06:04:48.981Z,101439.13
2023-05-05T06:07:19.357Z,101439.97
2023-05-05T06:09:56.556Z,101440.78
2023-05-05T06:12:29.429Z,101432.63
2023-05-05T06:14:59.605Z,101430.69
2023-05-05T06:17:29.736Z,101436.09
2023-05-05T06:20:00.121Z,101436.34
2023-05-05T06:22:39.929Z,101436.09
2023-05-05T06:25:16.053Z,101438.47
2023-05-05T06:27:49.096Z,101439.88
2023-05-05T06:30:19.578Z,101446.75
2023-05-05T06:32:49.615Z,101443.69
2023-05-05T06:35:19.904Z,101443.88
2023-05-05T06:37:49.994Z,101440.78
2023-05-05T06:40:22.777Z,101439.28
2023-05-05T06:42:55.122Z,101437.97
2023-05-05T06:45:31.327Z,101437.16
2023-05-05T06:48:02.773Z,101434.81
2023-05-05T06:50:33.010Z,101435.63
2023-05-05T06:53:03.158Z,101435.16
2023-05-05T06:55:36.632Z,101445.03
2023-05-05T06:58:07.089Z,101445.09
2023-05-05T07:00:37.199Z,101438.66
2023-05-05T07:03:07.442Z,101437.63
2023-05-05T07:05:37.667Z,101436.53
2023-05-05T07:08:11.536Z,101437.69
2023-05-05T07:10:45.992Z,101437.81
2023-05-05T07:13:18.198Z,101445.53
2023-05-05T07:15:49.118Z,101439.38
2023-05-05T07:18:20.673Z,101450.44
2023-05-05T07:20:52.031Z,101446.84
2023-05-05T07:23:22.074Z,101452.13
2023-05-05T07:25:54.796Z,101445.09
2023-05-05T07:28:25.085Z,101452.75
2023-05-05T07:30:57.460Z,101448.03
2023-05-05T07:33:27.816Z,101449.69
2023-05-05T07:35:58.046Z,101450.50
2023-05-05T07:38:28.741Z,101450.53
2023-05-05T07:41:01.592Z,101454.72
2023-05-05T07:43:31.839Z,101458.06
2023-05-05T07:46:01.936Z,101461.88
2023-05-05T07:48:32.265Z,101464.38
2023-05-05T07:51:02.434Z,101463.94
2023-05-05T07:53:32.568Z,101467.25
2023-05-05T07:56:05.370Z,101471.63
2023-05-05T07:58:35.420Z,101461.06
2023-05-05T08:01:06.655Z,101461.06
2023-05-05T08:03:36.839Z,101460.41
2023-05-05T08:06:11.529Z,101466.75
2023-05-05T08:08:41.614Z,101461.53
2023-05-05T08:11:14.316Z,101478.84
2023-05-05T08:13:45.755Z,101465.00
2023-05-05T08:16:16.284Z,101458.63
2023-05-05T08:18:46.716Z,101462.53
2023-05-05T08:21:16.912Z,101458.97
2023-05-05T08:23:46.935Z,101456.31
2023-05-05T08:26:19.760Z,101447.78
2023-05-05T08:28:49.833Z,101444.63
2023-05-05T08:31:20.152Z,101452.75
2023-05-05T08:33:50.519Z,101438.34
2023-05-05T08:36:20.649Z,101438.34
2023-05-05T08:38:50.802Z,101435.53
2023-05-05T08:41:23.507Z,101427.25
2023-05-05T08:43:53.686Z,101432.13
2023-05-05T08:46:24.585Z,101433.81
2023-05-05T08:48:58.051Z,101433.19
2023-05-05T08:51:45.616Z,101440.63
2023-05-05T08:54:21.317Z,101442.47
2023-05-05T08:56:55.379Z,101448.03
2023-05-05T08:59:30.243Z,101439.84
2023-05-05T09:02:01.512Z,101438.53
2023-05-05T09:04:31.712Z,101441.50
2023-05-05T09:07:01.943Z,101452.25
2023-05-05T09:09:33.290Z,101438.72
2023-05-05T09:12:06.105Z,101439.63
2023-05-05T09:14:36.309Z,101435.66
2023-05-05T09:17:06.778Z,101440.88
2023-05-05T09:19:36.906Z,101438.56
2023-05-05T09:22:06.964Z,101436.59
2023-05-05T09:24:37.050Z,101431.88
2023-05-05T09:27:24.684Z,101441.63
2023-05-05T09:29:54.882Z,101446.44
2023-05-05T09:32:27.171Z,101444.78
2023-05-05T09:35:02.044Z,101437.25
2023-05-05T09:37:32.994Z,101444.28
2023-05-05T09:40:03.848Z,101444.69
2023-05-05T09:42:37.990Z,101441.06
2023-05-05T09:45:28.153Z,101436.47
2023-05-05T09:48:00.102Z,101438.91
2023-05-05T09:50:32.749Z,101439.13
2023-05-05T09:53:04.910Z,101439.19
2023-05-05T09:55:36.210Z,101454.56
2023-05-05T09:58:33.883Z,101430.03
2023-05-05T10:01:06.625Z,101427.81
2023-05-05T10:03:36.752Z,101430.88
2023-05-05T10:06:08.063Z,101437.69
2023-05-05T10:09:03.808Z,101446.19
2023-05-05T10:11:34.783Z,101432.53
2023-05-05T10:14:09.469Z,101422.72
2023-05-05T10:16:43.912Z,101427.72
2023-05-05T10:19:17.452Z,101431.44
2023-05-05T10:21:52.163Z,101430.72
2023-05-05T10:24:31.859Z,101427.91
2023-05-05T10:27:05.493Z,101422.94
2023-05-05T10:29:46.078Z,101413.84
2023-05-05T10:32:53.504Z,101421.38
2023-05-05T10:35:23.818Z,101412.97
2023-05-05T10:37:54.072Z,101410.19
2023-05-05T10:40:25.677Z,101425.66
2023-05-05T10:42:58.075Z,101407.81
2023-05-05T10:45:30.874Z,101410.50
2023-05-05T10:48:03.710Z,101401.88
2023-05-05T10:50:39.348Z,101398.94
2023-05-05T10:53:19.572Z,101410.81
2023-05-05T10:55:57.169Z,101397.88
2023-05-05T10:58:46.966Z,101396.59
2023-05-05T11:01:35.695Z,101388.97
2023-05-05T11:04:22.234Z,101399.06
2023-05-05T11:07:24.381Z,101398.81
2023-05-05T11:10:02.103Z,101401.31
2023-05-05T11:12:38.645Z,101389.56
2023-05-05T11:15:38.175Z,101379.97
2023-05-05T11:18:30.730Z,101377.19
2023-05-05T11:21:15.798Z,101381.78
2023-05-05T11:23:50.359Z,101391.31
2023-05-05T11:26:25.044Z,101377.63
2023-05-05T11:29:05.468Z,101368.88
2023-05-05T11:31:36.773Z,101384.22
2023-05-05T11:34:47.530Z,101367.31
2023-05-05T11:37:18.651Z,101368.44
2023-05-05T11:40:06.492Z,101361.75
2023-05-05T11:42:40.424Z,101362.69
2023-05-05T11:45:28.315Z,101338.06
2023-05-05T11:48:35.757Z,101355.31
2023-05-05T11:51:13.912Z,101350.69
2023-05-05T11:53:52.723Z,101351.31
2023-05-05T11:56:29.036Z,101351.03
2023-05-05T11:59:41.677Z,101342.28
2023-05-05T12:02:11.990Z,101349.69
2023-05-05T12:04:45.733Z,101351.81
2023-05-05T12:07:22.465Z,101354.50
2023-05-05T12:09:53.127Z,101352.53
2023-05-05T12:12:25.666Z,101338.09
2023-05-05T12:15:08.171Z,101325.81
2023-05-05T12:17:49.654Z,101318.53
2023-05-05T12:20:19.976Z,101321.34
2023-05-05T12:22:52.967Z,101326.59
2023-05-05T12:25:23.260Z,101320.84
2023-05-05T12:27:56.070Z,101320.03
2023-05-05T12:30:32.786Z,101316.69
2023-05-05T12:33:22.350Z,101328.56
2023-05-05T12:35:52.979Z,101318.47
2023-05-05T12:38:30.164Z,101323.63
2023-05-05T12:41:03.616Z,101315.53
2023-05-05T12:43:38.827Z,101313.19
2023-05-05T12:46:14.806Z,101315.44
2023-05-05T12:49:00.610Z,101315.00
2023-05-05T12:51:33.826Z,101320.16
2023-05-05T12:54:11.401Z,101306.72
2023-05-05T12:56:48.412Z,101312.44
2023-05-05T12:59:33.017Z,101316.00
2023-05-05T13:02:03.978Z,101306.28
2023-05-05T13:04:34.526Z,101309.88
2023-05-05T13:07:14.682Z,101308.88
2023-05-05T13:09:47.614Z,101312.31
2023-05-05T13:12:19.155Z,101300.47
2023-05-05T13:14:50.228Z,101298.88
2023-05-05T13:17:20.323Z,101291.41
2023-05-05T13:19:51.149Z,101299.94
2023-05-05T13:22:21.228Z,101288.63
2023-05-05T13:24:54.093Z,101277.28
2023-05-05T13:27:24.453Z,101284.41
2023-05-05T13:29:54.593Z,101271.88
2023-05-05T13:32:27.602Z,101274.03
2023-05-05T13:34:58.192Z,101261.28
2023-05-05T13:37:28.484Z,101265.16
2023-05-05T13:40:03.318Z,101264.03
2023-05-05T13:42:33.988Z,101249.38
2023-05-05T13:45:05.748Z,101245.44
2023-05-05T13:47:38.732Z,101253.75
2023-05-05T13:50:13.559Z,101252.31
2023-05-05T13:52:43.889Z,101252.66
2023-05-05T13:55:20.644Z,101249.34
2023-05-05T13:57:50.686Z,101240.34
2023-05-05T14:00:22.070Z,101230.19
2023-05-05T14:02:52.333Z,101230.69
2023-05-05T14:05:23.503Z,101226.88
2023-05-05T14:07:54.415Z,101227.72
2023-05-05T14:10:29.944Z,101221.34
2023-05-05T14:13:00.556Z,101224.13
2023-05-05T14:15:30.873Z,101241.09
2023-05-05T14:18:31.555Z,101213.56
2023-05-05T14:21:01.723Z,101204.31
2023-05-05T14:23:32.221Z,101203.47
2023-05-05T14:26:05.125Z,101212.03
2023-05-05T14:28:35.359Z,101214.00
2023-05-05T14:31:05.523Z,101211.63
2023-05-05T14:33:38.023Z,101209.22
2023-05-05T14:36:08.846Z,101209.25
2023-05-05T14:38:38.985Z,101209.88
2023-05-05T14:41:11.867Z,101206.59
2023-05-05T14:43:41.989Z,101201.38
2023-05-05T14:46:12.312Z,101193.13
2023-05-05T14:48:42.545Z,101202.47
2023-05-05T14:51:12.745Z,101197.63
2023-05-05T14:53:42.834Z,101186.97
2023-05-05T14:56:15.517Z,101200.63
2023-05-05T14:58:47.278Z,101193.13
2023-05-05T15:01:18.655Z,101191.47
2023-05-05T15:03:49.095Z,101187.13
2023-05-05T15:06:19.425Z,101187.13
2023-05-05T15:08:50.089Z,101183.94
2023-05-05T15:11:24.609Z,101183.19
2023-05-05T15:13:55.137Z,101182.75
2023-05-05T15:16:25.291Z,101183.06
2023-05-05T15:18:55.558Z,101183.13
2023-05-05T15:21:25.773Z,101179.00
2023-05-05T15:23:56.112Z,101177.56
2023-05-05T15:26:29.184Z,101174.97
2023-05-05T15:28:59.411Z,101167.56
2023-05-05T15:32:34.800Z,101168.38
2023-05-05T15:35:05.019Z,101172.13
2023-05-05T15:37:35.198Z,101178.34
2023-05-05T15:40:08.582Z,101180.44
2023-05-05T15:42:44.507Z,101178.81
2023-05-05T15:45:20.500Z,101170.97
2023-05-05T15:47:51.006Z,101169.75
2023-05-05T15:50:21.962Z,101166.13
2023-05-05T15:52:52.053Z,101165.69
2023-05-05T15:55:24.892Z,101163.88
2023-05-05T15:58:00.031Z,101166.88
2023-05-05T16:00:31.533Z,101160.53
2023-05-05T16:03:01.772Z,101159.56
2023-05-05T16:05:34.449Z,101157.69
2023-05-05T16:08:09.711Z,101162.09
2023-05-05T16:10:40.283Z,101166.84
2023-05-05T16:13:21.708Z,101163.16
2023-05-05T16:15:52.123Z,101151.84
2023-05-05T16:18:25.034Z,101166.19
2023-05-05T16:20:55.359Z,101164.59
2023-05-05T16:23:25.825Z,101154.66
2023-05-05T16:25:56.945Z,101161.06
2023-05-05T16:28:29.843Z,101167.09
2023-05-05T16:31:00.050Z,101164.44
2023-05-05T16:33:30.576Z,101157.00
2023-05-05T16:36:00.678Z,101150.19
2023-05-05T16:38:31.282Z,101154.78
2023-05-05T16:41:01.585Z,101154.59
2023-05-05T16:43:34.425Z,101140.09
2023-05-05T16:46:04.727Z,101146.06
2023-05-05T16:48:35.174Z,101156.88
2023-05-05T16:51:05.314Z,101144.25
2023-05-05T16:53:35.857Z,101150.91
2023-05-05T16:56:10.444Z,101136.22
2023-05-05T16:58:43.927Z,101147.63
2023-05-05T17:01:14.018Z,101143.69
2023-05-05T17:03:44.284Z,101144.53
2023-05-05T17:06:14.502Z,101146.16
2023-05-05T17:08:44.606Z,101150.75
2023-05-05T17:11:14.675Z,101143.53
2023-05-05T17:13:50.625Z,101134.59
2023-05-05T17:16:21.164Z,101138.31
2023-05-05T17:18:51.318Z,101135.03
2023-05-05T17:21:21.379Z,101138.31
2023-05-05T17:23:51.466Z,101139.13
2023-05-05T17:26:21.966Z,101136.66
2023-05-05T17:28:54.686Z,101138.09
2023-05-05T17:31:24.822Z,101137.03
2023-05-05T17:33:54.987Z,101139.53
2023-05-05T17:36:25.069Z,101135.38
2023-05-05T17:38:55.190Z,101141.16
2023-05-05T17:41:25.801Z,101139.09
2023-05-05T17:43:59.661Z,101149.03
2023-05-05T17:46:31.906Z,101139.50
2023-05-05T17:49:02.984Z,101140.75
2023-05-05T17:51:33.186Z,101141.75
2023-05-05T17:54:03.310Z,101142.75
2023-05-05T17:56:34.086Z,101146.84
2023-05-05T17:59:06.813Z,101143.06
2023-05-05T18:01:36.910Z,101139.25
2023-05-05T18:04:27.061Z,101146.25
2023-05-05T18:06:58.613Z,101154.53
2023-05-05T18:09:29.931Z,101141.28
2023-05-05T18:12:00.010Z,101145.59
2023-05-05T18:14:50.798Z,101151.75
2023-05-05T18:17:23.425Z,101137.69
2023-05-05T18:19:53.550Z,101163.59
2023-05-05T18:22:23.884Z,101158.81
2023-05-05T18:24:59.858Z,101158.81
2023-05-05T18:27:32.561Z,101155.34
2023-05-05T18:30:05.388Z,101164.44
2023-05-05T18:32:35.623Z,101165.38
2023-05-05T18:35:06.498Z,101164.72
2023-05-05T18:37:36.761Z,101155.78
2023-05-05T18:40:10.166Z,101171.31
2023-05-05T18:42:40.340Z,101170.03
2023-05-05T18:45:16.625Z,101175.41
2023-05-05T18:47:51.207Z,101173.25
2023-05-05T18:50:21.579Z,101184.81
2023-05-05T18:52:51.636Z,101180.56
2023-05-05T18:55:24.111Z,101177.66
2023-05-05T18:57:56.308Z,101183.38
2023-05-05T19:00:30.969Z,101185.88
2023-05-05T19:03:05.937Z,101171.19
2023-05-05T19:05:45.323Z,101188.50
2023-05-05T19:08:15.464Z,101196.34
2023-05-05T19:10:49.447Z,101195.50
2023-05-05T19:13:21.057Z,101203.94
2023-05-05T19:16:05.663Z,101197.28
2023-05-05T19:18:38.875Z,101199.97
2023-05-05T19:21:09.030Z,101208.84
2023-05-05T19:23:39.182Z,101207.75
2023-05-05T19:26:10.575Z,101212.75
2023-05-05T19:28:40.807Z,101204.31
2023-05-05T19:31:15.415Z,101197.41
2023-05-05T19:33:48.372Z,101201.50
2023-05-05T19:36:19.414Z,101194.16
2023-05-05T19:38:49.450Z,101176.81
2023-05-05T19:41:20.150Z,101188.34
2023-05-05T19:43:54.670Z,101188.22
2023-05-05T19:46:33.072Z,101198.03
2023-05-05T19:49:03.918Z,101204.38
2023-05-05T19:51:51.165Z,101208.09
2023-05-05T19:54:30.932Z,101196.28
2023-05-05T19:57:01.141Z,101202.28
2023-05-05T19:59:33.879Z,101197.94
2023-05-05T20:02:10.867Z,101210.41
2023-05-05T20:04:41.189Z,101204.78
2023-05-05T20:07:11.557Z,101210.50
2023-05-05T20:09:41.689Z,101209.50
2023-05-05T20:12:12.350Z,101199.16
2023-05-05T20:14:42.810Z,101200.78
2023-05-05T20:17:18.020Z,101204.03
2023-05-05T20:19:48.128Z,101209.47
2023-05-05T20:22:18.155Z,101180.59
2023-05-05T20:24:48.354Z,101196.16
2023-05-05T20:27:19.331Z,101211.25
2023-05-05T20:29:51.786Z,101194.44
2023-05-05T20:32:36.087Z,101197.00
2023-05-05T20:35:07.678Z,101184.19
2023-05-05T20:37:38.047Z,101191.75
2023-05-05T20:40:11.335Z,101189.34
2023-05-05T20:42:41.673Z,101180.13
2023-05-05T20:45:15.325Z,101188.97
2023-05-05T20:47:53.339Z,101178.28
2023-05-05T20:50:24.893Z,101184.34
2023-05-05T20:52:55.045Z,101187.19
2023-05-05T20:55:28.601Z,101183.50
2023-05-05T20:58:02.004Z,101195.03
2023-05-05T21:00:32.185Z,101184.81
2023-05-05T21:03:30.076Z,101188.97
2023-05-05T21:06:05.353Z,101191.19
2023-05-05T21:08:39.668Z,101192.09
2023-05-05T21:11:13.330Z,101185.81
2023-05-05T21:13:45.545Z,101186.19
2023-05-05T21:16:23.021Z,101184.69
2023-05-05T21:18:59.258Z,101190.75
2023-05-05T21:21:39.295Z,101185.38
2023-05-05T21:24:23.525Z,101179.03
2023-05-05T21:26:53.703Z,101170.69
2023-05-05T21:29:25.331Z,101168.47
2023-05-05T21:32:20.285Z,101154.28
2023-05-05T21:35:14.942Z,101168.41
2023-05-05T21:37:45.086Z,101159.38
2023-05-05T21:40:16.477Z,101163.19
2023-05-05T21:42:46.817Z,101155.47
2023-05-05T21:45:16.989Z,101183.72
2023-05-05T21:47:50.133Z,101178.63
2023-05-05T21:50:22.918Z,101163.16
2023-05-05T21:52:54.203Z,101167.91
2023-05-05T21:55:26.616Z,101166.06
2023-05-05T21:57:57.867Z,101165.59
2023-05-05T22:00:28.011Z,101170.47
2023-05-05T22:03:01.108Z,101165.44
2023-05-05T22:05:34.048Z,101161.97
2023-05-05T22:08:04.124Z,101157.16
2023-05-05T22:10:34.631Z,101168.69
2023-05-05T22:13:05.316Z,101165.97
2023-05-05T22:15:46.023Z,101166.00
2023-05-05T22:18:17.730Z,101174.53
2023-05-05T22:20:51.480Z,101175.38
2023-05-05T22:23:21.523Z,101176.91
2023-05-05T22:25:54.888Z,101170.75
2023-05-05T22:28:25.046Z,101175.91
2023-05-05T22:30:55.199Z,101178.94
2023-05-05T22:33:25.732Z,101177.28
2023-05-05T22:35:58.548Z,101176.50
2023-05-05T22:38:29.030Z,101197.19
2023-05-05T22:40:59.425Z,101204.03
2023-05-05T22:43:30.035Z,101202.09
2023-05-05T22:46:00.111Z,101211.94
2023-05-05T22:48:30.180Z,101209.78
2023-05-05T22:51:03.918Z,101202.78
2023-05-05T22:53:33.977Z,101200.09
2023-05-05T22:56:04.891Z,101197.91
2023-05-05T22:58:38.235Z,101191.56
2023-05-05T23:01:08.377Z,101196.19
2023-05-05T23:03:38.448Z,101189.00
2023-05-05T23:06:13.269Z,101187.81
2023-05-05T23:08:43.647Z,101187.81
2023-05-05T23:11:13.944Z,101180.13
2023-05-05T23:13:44.041Z,101179.47
2023-05-05T23:16:14.382Z,101178.31
2023-05-05T23:18:44.559Z,101174.50
2023-05-05T23:21:17.599Z,101176.16
2023-05-05T23:23:48.635Z,101172.34
2023-05-05T23:26:18.649Z,101161.97
2023-05-05T23:28:49.089Z,101170.34
2023-05-05T23:31:19.304Z,101170.69
2023-05-05T23:33:49.374Z,101158.88
2023-05-05T23:36:22.214Z,101158.09
2023-05-05T23:38:52.411Z,101153.59
2023-05-05T23:41:22.446Z,101158.09
2023-05-05T23:43:52.524Z,101156.44
2023-05-05T23:46:22.696Z,101156.59
2023-05-05T23:48:53.439Z,101157.59
2023-05-05T23:51:27.398Z,101153.28
2023-05-05T23:53:59.801Z,101153.16
2023-05-05T23:56:29.802Z,101148.66
2023-05-05T23:58:59.795Z,101150.34
